Time;durP1;ratioP1;P1;durP2;ratioP2;P2;SDS_P1;SDS_P2;PMS_P1;PMS_P2;Temp;Humidity;BMP_temperature;BMP_pressure;BME280_temperature;BME280_humidity;BME280_pressure;Samples;Min_cycle;Max_cycle;Signal;HPM_P1;HPM_P2
2022/03/13 00:01:03;;;;;;;24.33;16.65;;;;;;;-1.73;100.00;92888.16;2097278;28;20020;-79
2022/03/13 00:02:07;;;;;;;28.55;17.27;;;;;;;-1.71;100.00;92891.19;2087687;28;20454;-79
2022/03/13 00:03:10;;;;;;;25.75;16.17;;;;;;;-1.75;100.00;92887.00;2085826;28;20111;-80
2022/03/13 00:04:13;;;;;;;23.05;16.40;;;;;;;-1.79;100.00;92886.91;2089991;28;20029;-80
2022/03/13 00:05:17;;;;;;;24.25;17.17;;;;;;;-1.87;100.00;92888.63;2089913;28;20029;-80
2022/03/13 00:06:32;;;;;;;23.23;16.27;;;;;;;-1.93;100.00;92889.22;2088011;28;20698;-81
2022/03/13 00:07:34;;;;;;;23.67;16.02;;;;;;;-1.90;100.00;92888.53;2087043;28;20098;-81
2022/03/13 00:08:35;;;;;;;24.52;16.38;;;;;;;-1.85;100.00;92891.63;2087846;28;20079;-81
2022/03/13 00:09:37;;;;;;;25.27;15.98;;;;;;;-1.88;100.00;92888.97;2088031;28;20110;-80
2022/03/13 00:10:38;;;;;;;24.33;17.20;;;;;;;-1.81;100.00;92896.94;2087910;28;20036;-79
2022/03/13 00:11:39;;;;;;;23.73;16.60;;;;;;;-1.84;100.00;92890.56;2083532;28;20026;-80
2022/03/13 00:12:40;;;;;;;28.67;16.52;;;;;;;-1.89;100.00;92897.91;2091494;28;20040;-81
2022/03/13 00:13:51;;;;;;;25.05;17.05;;;;;;;-1.93;100.00;92894.44;2097902;28;20043;-80
2022/03/13 00:14:56;;;;;;;26.48;17.67;;;;;;;-1.93;100.00;92894.44;2098423;28;20444;-81
2022/03/13 00:15:59;;;;;;;28.02;17.77;;;;;;;-2.00;100.00;92891.69;2091424;28;20025;-82
2022/03/13 00:17:00;;;;;;;26.38;16.55;;;;;;;-2.03;100.00;92893.88;2096720;28;20385;-81
2022/03/13 00:18:02;;;;;;;25.95;17.73;;;;;;;-2.07;100.00;92887.06;2097667;28;20025;-82
2022/03/13 00:19:06;;;;;;;28.67;17.02;;;;;;;-2.07;100.00;92890.44;2106128;28;20036;-81
2022/03/13 00:20:08;;;;;;;25.13;16.42;;;;;;;-2.11;100.00;92887.00;2098267;28;20032;-80
2022/03/13 00:21:10;;;;;;;25.55;16.92;;;;;;;-2.06;100.00;92888.59;2102793;28;20458;-82
2022/03/13 00:22:12;;;;;;;26.10;16.95;;;;;;;-2.13;100.00;92888.44;2094407;28;20033;-82
2022/03/13 00:23:13;;;;;;;25.52;17.13;;;;;;;-2.17;100.00;92890.22;2103509;28;20121;-81
2022/03/13 00:24:15;;;;;;;25.60;17.05;;;;;;;-2.18;100.00;92886.06;2097313;28;20028;-82
2022/03/13 00:25:16;;;;;;;24.60;17.33;;;;;;;-2.19;100.00;92895.03;2106169;28;20097;-79
2022/03/13 00:26:17;;;;;;;29.55;17.27;;;;;;;-2.15;100.00;92880.94;2097813;28;20032;-80
2022/03/13 00:27:18;;;;;;;26.23;17.45;;;;;;;-2.13;100.00;92889.19;2094071;28;20143;-81
2022/03/13 00:28:19;;;;;;;28.35;18.00;;;;;;;-2.15;100.00;92888.78;2095332;28;20020;-80
2022/03/13 00:29:20;;;;;;;26.10;17.27;;;;;;;-2.13;100.00;92896.28;2099395;28;20024;-81
2022/03/13 00:30:22;;;;;;;26.85;17.10;;;;;;;-2.11;100.00;92892.22;2095711;28;20056;-81
2022/03/13 00:31:24;;;;;;;28.60;17.65;;;;;;;-2.06;100.00;92891.97;2095014;28;20855;-81
2022/03/13 00:32:26;;;;;;;26.67;18.10;;;;;;;-1.88;100.00;92892.34;2097874;28;20024;-81
2022/03/13 00:33:27;;;;;;;28.25;17.77;;;;;;;-1.92;100.00;92888.88;2092312;28;20120;-79
2022/03/13 00:34:28;;;;;;;25.30;17.73;;;;;;;-2.04;100.00;92889.00;2096344;28;20019;-81
2022/03/13 00:35:31;;;;;;;25.70;17.98;;;;;;;-2.00;100.00;92894.31;2106099;28;20468;-82
2022/03/13 00:36:32;;;;;;;26.17;17.95;;;;;;;-1.99;100.00;92896.59;2103471;28;20457;-81
2022/03/13 00:37:32;;;;;;;24.67;16.92;;;;;;;-1.94;100.00;92892.94;2092387;28;20025;-79
2022/03/13 00:38:33;;;;;;;28.73;17.85;;;;;;;-1.95;100.00;92886.19;2095701;28;20032;-81
2022/03/13 00:39:38;;;;;;;26.10;18.13;;;;;;;-1.92;100.00;92883.66;2094041;28;20059;-81
2022/03/13 00:40:40;;;;;;;26.98;17.50;;;;;;;-2.00;100.00;92889.06;2089379;28;20064;-81
2022/03/13 00:41:41;;;;;;;22.90;16.80;;;;;;;-2.09;100.00;92892.63;2084710;28;20089;-82
2022/03/13 00:42:42;;;;;;;26.17;17.67;;;;;;;-2.11;100.00;92887.00;2086685;28;20017;-82
2022/03/13 00:43:43;;;;;;;26.13;17.35;;;;;;;-2.17;100.00;92883.09;2089343;28;20040;-81
2022/03/13 00:44:44;;;;;;;24.30;17.45;;;;;;;-2.21;100.00;92879.66;2097781;28;20023;-82
2022/03/13 00:45:46;;;;;;;25.38;17.98;;;;;;;-2.19;100.00;92880.09;2097668;28;20051;-80
2022/03/13 00:46:47;;;;;;;27.25;17.05;;;;;;;-2.14;100.00;92879.06;2097313;28;20389;-81
2022/03/13 00:47:48;;;;;;;24.45;17.92;;;;;;;-2.18;100.00;92886.84;2097343;28;20017;-79
2022/03/13 00:48:49;;;;;;;27.05;18.40;;;;;;;-2.21;100.00;92882.28;2099390;28;20453;-81
2022/03/13 00:49:50;;;;;;;26.52;17.48;;;;;;;-2.25;100.00;92884.06;2097507;28;20016;-80
2022/03/13 00:50:51;;;;;;;23.75;16.40;;;;;;;-2.26;100.00;92885.16;2102089;28;20539;-80
2022/03/13 00:51:52;;;;;;;25.60;17.42;;;;;;;-2.28;100.00;92880.28;2100184;28;20024;-82
2022/03/13 00:52:53;;;;;;;29.02;18.27;;;;;;;-2.28;100.00;92895.22;2105897;28;20043;-81
2022/03/13 00:53:54;;;;;;;27.27;17.95;;;;;;;-2.30;100.00;92882.44;2097205;28;20544;-81
2022/03/13 00:54:55;;;;;;;25.67;17.70;;;;;;;-2.29;100.00;92883.22;2097536;28;20135;-81
2022/03/13 00:55:56;;;;;;;25.38;17.40;;;;;;;-2.20;100.00;92883.03;2100109;28;20230;-82
2022/03/13 00:56:57;;;;;;;27.25;18.48;;;;;;;-2.26;100.00;92887.03;2098211;28;20025;-81
2022/03/13 00:57:58;;;;;;;25.42;17.73;;;;;;;-2.29;100.00;92891.06;2103134;28;20021;-81
2022/03/13 00:58:59;;;;;;;23.95;16.98;;;;;;;-2.25;100.00;92886.66;2091702;28;20397;-82
2022/03/13 01:00:00;;;;;;;23.73;16.92;;;;;;;-2.18;100.00;92884.22;2088572;28;20067;-81
2022/03/13 01:01:01;;;;;;;26.63;17.65;;;;;;;-2.13;100.00;92881.31;2097606;28;20032;-81
2022/03/13 01:02:03;;;;;;;23.10;16.42;;;;;;;-2.17;100.00;92879.75;2093446;28;20044;-81
2022/03/13 01:03:04;;;;;;;29.00;17.88;;;;;;;-2.20;100.00;92881.16;2087264;28;20051;-79
2022/03/13 01:04:05;;;;;;;26.83;17.10;;;;;;;-2.31;100.00;92882.81;2106487;28;20251;-82
2022/03/13 01:05:10;;;;;;;24.50;17.08;;;;;;;-2.29;100.00;92880.59;2107134;28;20016;-82
2022/03/13 01:06:11;;;;;;;23.80;16.48;;;;;;;-2.23;100.00;92876.63;2090269;28;20040;-81
2022/03/13 01:07:14;;;;;;;27.30;16.98;;;;;;;-2.20;100.00;92881.16;2084218;28;20029;-81
2022/03/13 01:08:15;;;;;;;25.27;17.67;;;;;;;-2.25;100.00;92880.69;2095606;28;20027;-80
2022/03/13 01:09:16;;;;;;;27.95;17.40;;;;;;;-2.35;100.00;92881.97;2089179;28;20055;-79
2022/03/13 01:10:18;;;;;;;25.92;17.52;;;;;;;-2.28;100.00;92880.28;2091300;28;20074;-81
2022/03/13 01:11:20;;;;;;;28.45;18.33;;;;;;;-2.26;100.00;92877.31;2095374;28;20039;-78
2022/03/13 01:12:22;;;;;;;26.52;17.75;;;;;;;-2.34;100.00;92878.25;2104450;28;20051;-80
2022/03/13 01:13:23;;;;;;;25.58;17.73;;;;;;;-2.42;100.00;92887.78;2099574;28;20115;-78
2022/03/13 01:14:24;;;;;;;25.15;18.13;;;;;;;-2.34;100.00;92875.63;2095454;28;20027;-81
2022/03/13 01:15:27;;;;;;;26.10;17.33;;;;;;;-2.30;100.00;92877.22;2089970;28;20017;-81
2022/03/13 01:16:39;;;;;;;29.70;18.73;;;;;;;-2.22;100.00;92874.78;2097918;28;20032;-80
2022/03/13 01:17:40;;;;;;;27.40;18.02;;;;;;;-2.13;100.00;92881.31;2113418;28;20015;-80
2022/03/13 01:18:53;;;;;;;26.73;17.58;;;;;;;-2.20;100.00;92878.53;2114591;27;20019;-81
2022/03/13 01:19:53;;;;;;;24.25;17.02;;;;;;;-2.28;100.00;92874.28;2105863;28;20357;-80
2022/03/13 01:20:54;;;;;;;26.02;17.25;;;;;;;-2.10;100.00;92878.03;2097218;28;20048;-80
2022/03/13 01:21:56;;;;;;;28.90;17.33;;;;;;;-2.22;100.00;92880.00;2097019;28;20024;-81
2022/03/13 01:22:57;;;;;;;24.98;17.77;;;;;;;-2.36;100.00;92872.59;2095419;28;20043;-80
2022/03/13 01:23:57;;;;;;;25.83;17.08;;;;;;;-2.26;100.00;92877.31;2086518;28;20025;-79
2022/03/13 01:24:58;;;;;;;25.17;17.15;;;;;;;-2.21;100.00;92871.78;2083489;28;20022;-80
2022/03/13 01:26:21;;;;;;;27.17;18.40;;;;;;;-2.33;100.00;92871.91;2097793;28;20090;-80
2022/03/13 01:27:22;;;;;;;29.30;17.42;;;;;;;-2.37;100.00;92876.28;2096303;28;20012;-80
2022/03/13 01:28:23;;;;;;;26.30;18.48;;;;;;;-2.44;100.00;92863.06;2089039;28;20025;-80
2022/03/13 01:29:24;;;;;;;25.42;18.88;;;;;;;-2.41;100.00;92872.88;2089306;28;20531;-81
2022/03/13 01:30:25;;;;;;;33.13;19.15;;;;;;;-2.44;100.00;92871.66;2094010;28;20039;-81
2022/03/13 01:31:29;;;;;;;26.80;17.85;;;;;;;-2.41;100.00;92867.63;2094886;28;20153;-80
2022/03/13 01:32:32;;;;;;;31.35;18.13;;;;;;;-2.39;100.00;92868.78;2099706;28;20085;-81
2022/03/13 01:33:33;;;;;;;26.27;17.92;;;;;;;-2.44;100.00;92870.91;2087530;28;20022;-80
2022/03/13 01:34:38;;;;;;;27.20;18.60;;;;;;;-2.50;100.00;92870.44;2098557;28;20024;-81
2022/03/13 01:35:39;;;;;;;28.13;18.00;;;;;;;-2.47;100.00;92866.34;2097066;28;20021;-80
2022/03/13 01:36:40;;;;;;;25.88;17.75;;;;;;;-2.42;100.00;92866.09;2096532;28;20036;-80
2022/03/13 01:37:48;;;;;;;26.65;18.67;;;;;;;-2.37;100.00;92866.59;2096814;28;20082;-82
2022/03/13 01:38:52;;;;;;;25.08;17.67;;;;;;;-2.40;100.00;92862.03;2084497;28;20108;-82
2022/03/13 01:39:54;;;;;;;26.77;17.88;;;;;;;-2.39;100.00;92860.94;2088766;28;20033;-81
2022/03/13 01:40:55;;;;;;;26.85;18.08;;;;;;;-2.49;100.00;92863.34;2089096;28;20047;-80
2022/03/13 01:41:56;;;;;;;27.65;18.73;;;;;;;-2.51;100.00;92862.91;2089474;28;20864;-81
2022/03/13 01:42:57;;;;;;;26.77;18.48;;;;;;;-2.51;100.00;92868.13;2098738;28;20108;-79
2022/03/13 01:44:00;;;;;;;25.38;18.15;;;;;;;-2.51;100.00;92860.28;2106451;28;20016;-81
2022/03/13 01:45:03;;;;;;;26.42;18.02;;;;;;;-2.51;100.00;92860.28;2097109;28;20024;-81
2022/03/13 01:46:04;;;;;;;23.65;16.42;;;;;;;-2.46;100.00;92860.00;2094669;28;20086;-81
2022/03/13 01:47:06;;;;;;;27.65;17.73;;;;;;;-2.59;100.00;92860.13;2096678;28;20540;-81
2022/03/13 01:48:07;;;;;;;25.45;17.55;;;;;;;-2.57;100.00;92863.16;2101646;28;20024;-80
2022/03/13 01:49:08;;;;;;;26.75;17.67;;;;;;;-2.58;100.00;92851.19;2104630;28;20019;-80
2022/03/13 01:50:14;;;;;;;24.45;17.55;;;;;;;-2.59;100.00;92856.72;2102567;28;20491;-81
2022/03/13 01:51:15;;;;;;;30.17;18.30;;;;;;;-2.63;100.00;92859.28;2104415;28;20077;-80
2022/03/13 01:52:16;;;;;;;27.67;17.95;;;;;;;-2.52;100.00;92846.44;2098227;28;20092;-80
2022/03/13 01:53:18;;;;;;;24.10;16.65;;;;;;;-2.50;100.00;92857.34;2089925;28;20044;-81
2022/03/13 01:54:20;;;;;;;26.23;17.92;;;;;;;-2.41;100.00;92851.94;2089133;28;20491;-81
2022/03/13 01:55:21;;;;;;;27.83;17.98;;;;;;;-2.44;100.00;92847.38;2095059;28;20420;-82
2022/03/13 01:56:22;;;;;;;28.35;18.60;;;;;;;-2.53;100.00;92853.53;2093614;28;20024;-81
2022/03/13 01:57:24;;;;;;;26.55;18.35;;;;;;;-2.56;100.00;92856.81;2085679;28;20029;-79
2022/03/13 01:58:26;;;;;;;26.20;17.63;;;;;;;-2.46;100.00;92854.78;2092300;28;20117;-80
2022/03/13 01:59:30;;;;;;;25.90;17.95;;;;;;;-2.47;100.00;92855.88;2094248;28;20532;-80
2022/03/13 02:00:32;;;;;;;26.13;16.83;;;;;;;-2.42;100.00;92847.78;2083274;28;20741;-81
2022/03/13 02:01:35;;;;;;;29.13;16.50;;;;;;;-2.60;100.00;92853.38;2093622;28;20020;-81
2022/03/13 02:02:43;;;;;;;25.27;17.17;;;;;;;-2.46;100.00;92849.53;2105173;28;20111;-82
2022/03/13 02:03:45;;;;;;;27.25;17.80;;;;;;;-2.53;100.00;92855.41;2113550;28;20106;-81
2022/03/13 02:04:52;;;;;;;25.90;17.65;;;;;;;-2.54;100.00;92852.03;2105521;28;20027;-81
2022/03/13 02:05:54;;;;;;;27.42;16.95;;;;;;;-2.54;100.00;92859.88;2097236;28;20033;-79
2022/03/13 02:06:58;;;;;;;23.33;17.02;;;;;;;-2.41;100.00;92852.69;2097186;28;20111;-80
2022/03/13 02:08:10;;;;;;;26.48;17.17;;;;;;;-2.36;100.00;92854.28;2110617;28;20393;-81
2022/03/13 02:09:12;;;;;;;28.10;17.40;;;;;;;-2.44;100.00;92849.97;2103511;28;21611;-81
2022/03/13 02:11:57;;;;;;;24.38;16.17;;;;;;;-2.53;100.00;92852.78;2130505;27;20171;-80
2022/03/13 02:12:58;;;;;;;27.05;17.08;;;;;;;-2.53;100.00;92853.53;2109116;28;20487;-79
2022/03/13 02:13:59;;;;;;;29.05;17.10;;;;;;;-2.45;100.00;92856.31;2095593;28;20063;-80
2022/03/13 02:15:00;;;;;;;28.85;17.45;;;;;;;-2.49;100.00;92858.84;2095972;28;20042;-79
2022/03/13 02:16:01;;;;;;;25.92;17.60;;;;;;;-2.50;100.00;92851.31;2097078;28;20465;-78
2022/03/13 02:17:02;;;;;;;25.70;18.48;;;;;;;-2.61;100.00;92851.09;2112935;28;20066;-78
2022/03/13 02:18:04;;;;;;;25.35;16.48;;;;;;;-2.59;100.00;92844.44;2104292;28;20107;-80
2022/03/13 02:19:07;;;;;;;28.23;17.98;;;;;;;-2.67;100.00;92850.59;2096695;28;20028;-79
2022/03/13 02:20:33;;;;;;;24.63;17.90;;;;;;;-2.68;100.00;92849.06;2122621;27;20019;-81
2022/03/13 02:21:42;;;;;;;23.80;17.20;;;;;;;-2.67;100.00;92845.38;2113581;28;20015;-79
2022/03/13 02:22:47;;;;;;;27.08;17.50;;;;;;;-2.66;100.00;92846.88;2104199;28;20027;-78
2022/03/13 02:23:48;;;;;;;24.63;17.25;;;;;;;-2.72;100.00;92850.06;2103069;28;20575;-81
2022/03/13 02:24:51;;;;;;;28.15;17.52;;;;;;;-2.73;100.00;92845.94;2101895;28;20020;-80
2022/03/13 02:25:55;;;;;;;27.15;17.15;;;;;;;-2.69;100.00;92838.94;2096441;28;20031;-79
2022/03/13 02:27:02;;;;;;;23.58;16.70;;;;;;;-2.63;100.00;92848.06;2104974;28;20106;-80
2022/03/13 02:28:03;;;;;;;27.10;17.38;;;;;;;-2.46;100.00;92846.94;2106924;28;20044;-79
2022/03/13 02:29:11;;;;;;;25.88;16.70;;;;;;;-2.37;100.00;92843.06;2113639;28;20392;-80
2022/03/13 02:30:12;;;;;;;25.90;17.05;;;;;;;-2.35;100.00;92845.31;2121319;27;20031;-81
2022/03/13 02:31:18;;;;;;;27.83;18.17;;;;;;;-2.45;100.00;92848.47;2113221;28;21983;-81
2022/03/13 02:32:19;;;;;;;26.08;17.55;;;;;;;-2.44;100.00;92834.28;2113194;28;20144;-81
2022/03/13 02:33:21;;;;;;;25.70;16.92;;;;;;;-2.55;100.00;92829.59;2112577;28;20104;-79
2022/03/13 02:34:22;;;;;;;27.45;17.45;;;;;;;-2.55;100.00;92829.59;2112876;28;20432;-78
2022/03/13 02:35:23;;;;;;;30.98;18.25;;;;;;;-2.69;100.00;92838.94;2104015;28;20079;-79
2022/03/13 02:36:34;;;;;;;23.92;17.08;;;;;;;-2.78;100.00;92831.28;2095114;28;20028;-79
2022/03/13 02:37:40;;;;;;;25.08;16.60;;;;;;;-2.60;100.00;92832.44;2105435;28;20159;-81
2022/03/13 02:38:41;;;;;;;25.15;16.63;;;;;;;-2.63;100.00;92835.00;2122168;27;20023;-79
2022/03/13 02:39:43;;;;;;;28.85;17.73;;;;;;;-2.48;100.00;92830.81;2113945;28;20019;-81
2022/03/13 02:40:44;;;;;;;26.35;17.65;;;;;;;-2.49;100.00;92839.78;2097475;28;20062;-79
2022/03/13 02:41:45;;;;;;;26.90;18.25;;;;;;;-2.34;100.00;92846.84;2096706;28;20028;-80
2022/03/13 02:42:46;;;;;;;29.38;18.20;;;;;;;-2.49;100.00;92840.53;2097286;28;20017;-80
2022/03/13 02:43:47;;;;;;;24.50;18.10;;;;;;;-2.54;100.00;92840.81;2097458;28;20050;-80
2022/03/13 02:44:49;;;;;;;25.67;16.98;;;;;;;-2.58;100.00;92842.56;2103898;28;20435;-81
2022/03/13 02:45:54;;;;;;;26.55;16.92;;;;;;;-2.37;100.00;92839.66;2105142;28;20048;-80
2022/03/13 02:46:58;;;;;;;25.00;18.40;;;;;;;-2.47;100.00;92834.97;2098295;28;20052;-81
2022/03/13 02:48:01;;;;;;;25.38;16.85;;;;;;;-2.49;100.00;92837.16;2095615;28;20111;-80
2022/03/13 02:49:02;;;;;;;25.17;17.20;;;;;;;-2.47;100.00;92830.47;2096014;28;20032;-81
2022/03/13 02:50:03;;;;;;;24.50;17.60;;;;;;;-2.61;100.00;92828.31;2104074;28;20489;-79
2022/03/13 02:51:04;;;;;;;27.50;18.27;;;;;;;-2.68;100.00;92835.97;2104101;28;20563;-81
2022/03/13 02:52:10;;;;;;;26.92;16.67;;;;;;;-2.74;100.00;92828.75;2103846;28;20032;-80
2022/03/13 02:53:19;;;;;;;25.48;16.10;;;;;;;-2.66;100.00;92825.94;2103103;28;20473;-80
2022/03/13 02:54:25;;;;;;;28.87;18.30;;;;;;;-2.67;100.00;92824.44;2102562;28;20031;-80
2022/03/13 02:55:26;;;;;;;28.60;18.38;;;;;;;-2.76;100.00;92829.09;2113049;28;20458;-81
2022/03/13 02:56:27;;;;;;;31.05;18.48;;;;;;;-2.81;100.00;92824.88;2104966;28;20020;-81
2022/03/13 02:57:28;;;;;;;27.35;18.95;;;;;;;-2.85;100.00;92825.91;2109488;28;20042;-79
2022/03/13 02:58:29;;;;;;;26.20;18.05;;;;;;;-2.87;100.00;92830.69;2103903;28;20031;-79
2022/03/13 02:59:29;;;;;;;29.67;19.20;;;;;;;-2.90;100.00;92826.13;2099489;28;20025;-81
2022/03/13 03:00:47;;;;;;;27.35;18.30;;;;;;;-2.89;100.00;92831.03;2111725;28;20126;-80
2022/03/13 03:01:49;;;;;;;25.45;17.45;;;;;;;-2.80;100.00;92820.41;2110319;28;20457;-81
2022/03/13 03:02:50;;;;;;;23.25;17.40;;;;;;;-2.74;100.00;92826.88;2097838;28;20790;-79
2022/03/13 03:03:57;;;;;;;27.90;18.45;;;;;;;-2.79;100.00;92827.91;2105020;28;20066;-80
2022/03/13 03:05:01;;;;;;;27.17;17.70;;;;;;;-2.78;100.00;92823.44;2117513;28;20024;-81
2022/03/13 03:06:03;;;;;;;28.48;17.38;;;;;;;-2.86;100.00;92829.59;2114731;28;20070;-80
2022/03/13 03:07:05;;;;;;;24.42;17.27;;;;;;;-2.79;100.00;92829.75;2097898;28;20028;-81
2022/03/13 03:08:07;;;;;;;28.05;18.55;;;;;;;-2.81;100.00;92826.72;2097506;28;20032;-81
2022/03/13 03:09:08;;;;;;;26.45;18.38;;;;;;;-2.82;100.00;92828.56;2110877;28;20074;-81
2022/03/13 03:10:14;;;;;;;25.15;17.92;;;;;;;-2.77;100.00;92824.94;2100490;28;20028;-81
2022/03/13 03:11:16;;;;;;;27.60;17.83;;;;;;;-2.76;100.00;92823.09;2109918;28;20085;-80
2022/03/13 03:12:18;;;;;;;26.55;18.17;;;;;;;-2.82;100.00;92833.03;2112994;28;20063;-80
2022/03/13 03:13:20;;;;;;;29.73;19.38;;;;;;;-2.82;100.00;92825.19;2092603;28;20029;-79
2022/03/13 03:14:21;;;;;;;25.95;17.98;;;;;;;-2.83;100.00;92828.91;2091555;28;20025;-79
2022/03/13 03:15:24;;;;;;;28.10;17.70;;;;;;;-2.72;100.00;92831.78;2091676;28;20028;-79
2022/03/13 03:16:25;;;;;;;26.98;18.48;;;;;;;-2.82;100.00;92831.19;2093891;28;20047;-79
2022/03/13 03:17:26;;;;;;;26.58;17.88;;;;;;;-2.90;100.00;92833.97;2094161;28;20025;-80
2022/03/13 03:18:27;;;;;;;25.85;18.50;;;;;;;-2.88;100.00;92835.16;2094545;28;20631;-81
2022/03/13 03:19:28;;;;;;;28.35;18.67;;;;;;;-2.95;100.00;92826.38;2108171;28;20379;-80
2022/03/13 03:20:29;;;;;;;25.55;17.95;;;;;;;-2.96;100.00;92835.34;2107253;28;20479;-81
2022/03/13 03:21:31;;;;;;;28.35;17.80;;;;;;;-2.92;100.00;92833.56;2090004;28;20024;-80
2022/03/13 03:22:32;;;;;;;27.80;18.52;;;;;;;-2.91;100.00;92829.84;2101895;28;20016;-80
2022/03/13 03:23:33;;;;;;;27.48;18.35;;;;;;;-2.96;100.00;92828.25;2100057;28;20108;-80
2022/03/13 03:24:34;;;;;;;25.98;17.63;;;;;;;-2.93;100.00;92824.22;2096965;28;20017;-80
2022/03/13 03:25:35;;;;;;;27.25;17.40;;;;;;;-2.91;100.00;92833.22;2094140;28;20028;-80
2022/03/13 03:26:37;;;;;;;25.23;18.45;;;;;;;-2.84;100.00;92830.03;2094865;28;20021;-79
2022/03/13 03:27:42;;;;;;;27.15;17.67;;;;;;;-2.81;100.00;92831.94;2102881;28;20024;-81
2022/03/13 03:28:44;;;;;;;26.58;17.63;;;;;;;-2.77;100.00;92830.16;2107731;28;20023;-79
2022/03/13 03:29:45;;;;;;;26.10;17.95;;;;;;;-2.79;100.00;92830.53;2096902;28;20024;-79
2022/03/13 03:30:47;;;;;;;27.73;18.08;;;;;;;-2.81;100.00;92831.94;2091575;28;20029;-79
2022/03/13 03:31:49;;;;;;;27.02;17.80;;;;;;;-2.92;100.00;92836.19;2093103;28;20555;-80
2022/03/13 03:32:51;;;;;;;27.73;17.42;;;;;;;-2.94;100.00;92835.75;2092094;28;20028;-80
2022/03/13 03:33:52;;;;;;;26.83;19.00;;;;;;;-2.95;100.00;92840.22;2098685;28;20024;-79
2022/03/13 03:34:53;;;;;;;26.10;18.65;;;;;;;-2.81;100.00;92834.56;2108234;28;20027;-78
2022/03/13 03:35:54;;;;;;;26.55;17.67;;;;;;;-2.86;100.00;92832.19;2104232;28;20723;-79
2022/03/13 03:36:58;;;;;;;27.00;17.80;;;;;;;-2.94;100.00;92838.34;2103564;28;20074;-79
2022/03/13 03:37:59;;;;;;;24.40;17.67;;;;;;;-2.98;100.00;92843.53;2103652;28;20056;-80
2022/03/13 03:39:00;;;;;;;29.27;18.70;;;;;;;-2.98;100.00;92843.53;2097266;28;20095;-80
2022/03/13 03:40:02;;;;;;;28.30;18.38;;;;;;;-2.99;100.00;92849.06;2093335;28;20453;-78
2022/03/13 03:41:03;;;;;;;25.15;17.40;;;;;;;-3.01;100.00;92846.81;2092193;28;20063;-79
2022/03/13 03:42:06;;;;;;;25.13;16.98;;;;;;;-2.95;100.00;92850.66;2093820;28;20044;-80
2022/03/13 03:43:07;;;;;;;25.35;16.95;;;;;;;-3.06;100.00;92847.81;2106492;28;20043;-80
2022/03/13 03:44:08;;;;;;;27.67;18.10;;;;;;;-3.02;100.00;92841.91;2115784;27;20023;-80
2022/03/13 03:45:10;;;;;;;28.05;18.17;;;;;;;-3.11;100.00;92840.22;2114844;27;20536;-81
2022/03/13 03:46:11;;;;;;;23.20;16.63;;;;;;;-3.13;100.00;92841.66;2095794;28;20424;-81
2022/03/13 03:47:12;;;;;;;29.67;17.15;;;;;;;-3.09;100.00;92843.25;2094389;28;20017;-80
2022/03/13 03:48:13;;;;;;;26.30;17.85;;;;;;;-3.04;100.00;92850.06;2086046;28;20025;-80
2022/03/13 03:49:15;;;;;;;27.05;17.45;;;;;;;-3.17;100.00;92843.41;2094652;28;20089;-79
2022/03/13 03:50:16;;;;;;;27.42;17.95;;;;;;;-3.16;100.00;92852.75;2104025;28;20060;-79
2022/03/13 03:51:17;;;;;;;24.55;17.30;;;;;;;-3.12;100.00;92853.59;2103958;28;20064;-81
2022/03/13 03:52:18;;;;;;;24.65;18.00;;;;;;;-3.13;100.00;92846.88;2091963;28;20024;-80
2022/03/13 03:53:19;;;;;;;26.17;17.52;;;;;;;-3.02;100.00;92853.13;2105917;28;20070;-79
2022/03/13 03:54:20;;;;;;;23.85;17.33;;;;;;;-3.14;100.00;92856.56;2106800;28;20325;-79
2022/03/13 03:55:23;;;;;;;25.45;18.30;;;;;;;-3.09;100.00;92850.34;2091691;28;20489;-79
2022/03/13 03:56:24;;;;;;;28.35;17.40;;;;;;;-3.15;100.00;92851.69;2090220;28;20025;-80
2022/03/13 03:57:25;;;;;;;24.77;18.15;;;;;;;-3.13;100.00;92852.84;2095960;28;20102;-80
2022/03/13 03:58:26;;;;;;;27.25;17.60;;;;;;;-3.07;100.00;92851.53;2095830;28;20020;-80
2022/03/13 03:59:27;;;;;;;27.17;18.15;;;;;;;-3.02;100.00;92857.59;2105239;28;20016;-79
2022/03/13 04:00:29;;;;;;;25.98;17.38;;;;;;;-3.02;100.00;92865.44;2104094;28;20027;-79
2022/03/13 04:01:42;;;;;;;25.38;17.10;;;;;;;-2.99;100.00;92851.69;2104361;28;20746;-80
2022/03/13 04:02:45;;;;;;;26.35;17.75;;;;;;;-2.90;100.00;92857.50;2095470;28;20140;-79
2022/03/13 04:03:46;;;;;;;24.10;16.92;;;;;;;-2.91;100.00;92856.75;2094584;28;20040;-80
2022/03/13 04:04:47;;;;;;;25.00;17.35;;;;;;;-2.89;100.00;92846.72;2095369;28;20025;-81
2022/03/13 04:05:48;;;;;;;32.13;17.23;;;;;;;-2.71;100.00;92854.22;2091521;28;20024;-78
2022/03/13 04:06:49;;;;;;;27.30;18.02;;;;;;;-2.81;100.00;92852.88;2101194;28;20879;-80
2022/03/13 04:07:50;;;;;;;26.25;17.30;;;;;;;-2.88;100.00;92850.09;2105390;28;20750;-81
2022/03/13 04:08:51;;;;;;;26.08;17.25;;;;;;;-2.90;100.00;92854.88;2100140;28;20028;-80
2022/03/13 04:09:52;;;;;;;31.08;18.15;;;;;;;-2.96;100.00;92849.16;2099543;28;20028;-79
2022/03/13 04:10:53;;;;;;;26.30;18.08;;;;;;;-3.01;100.00;92849.41;2089580;28;20025;-80
2022/03/13 04:11:54;;;;;;;27.85;18.77;;;;;;;-3.01;100.00;92852.03;2096000;28;20044;-79
2022/03/13 04:12:56;;;;;;;26.92;17.88;;;;;;;-3.02;100.00;92845.28;2090443;28;20021;-78
2022/03/13 04:13:58;;;;;;;28.00;17.40;;;;;;;-3.00;100.00;92850.16;2094784;28;20069;-80
2022/03/13 04:15:00;;;;;;;29.77;18.58;;;;;;;-2.97;100.00;92850.25;2089722;28;20027;-79
2022/03/13 04:16:01;;;;;;;24.83;17.13;;;;;;;-3.02;100.00;92849.75;2089846;28;20106;-81
2022/03/13 04:17:05;;;;;;;25.17;16.98;;;;;;;-3.02;100.00;92849.75;2092333;28;20541;-80
2022/03/13 04:18:06;;;;;;;31.48;17.45;;;;;;;-3.01;100.00;92848.66;2097813;28;20036;-80
2022/03/13 04:19:11;;;;;;;24.80;17.33;;;;;;;-2.88;100.00;92845.63;2108745;28;20400;-81
2022/03/13 04:20:12;;;;;;;28.67;17.63;;;;;;;-2.92;100.00;92846.63;2096337;28;20055;-80
2022/03/13 04:21:13;;;;;;;29.02;18.10;;;;;;;-3.05;100.00;92849.31;2095577;28;20047;-78
2022/03/13 04:22:17;;;;;;;24.17;16.13;;;;;;;-3.09;100.00;92842.50;2102247;28;20882;-80
2022/03/13 04:23:29;;;;;;;27.67;16.63;;;;;;;-3.04;100.00;92847.47;2099398;28;20025;-81
2022/03/13 04:24:30;;;;;;;23.88;17.20;;;;;;;-3.02;100.00;92849.75;2097849;28;20481;-80
2022/03/13 04:25:31;;;;;;;26.98;17.38;;;;;;;-3.16;100.00;92847.53;2099799;28;20024;-79
2022/03/13 04:26:32;;;;;;;27.38;16.92;;;;;;;-3.13;100.00;92847.63;2094470;28;20031;-79
2022/03/13 04:27:35;;;;;;;26.15;17.17;;;;;;;-3.08;100.00;92850.00;2101051;28;20099;-81
2022/03/13 04:28:36;;;;;;;26.52;17.30;;;;;;;-3.04;100.00;92845.59;2108042;28;20054;-81
2022/03/13 04:29:37;;;;;;;21.08;15.00;;;;;;;-2.95;100.00;92848.06;2092963;28;20020;-80
2022/03/13 04:30:40;;;;;;;25.67;16.85;;;;;;;-2.97;100.00;92852.13;2090576;28;20082;-80
2022/03/13 04:31:41;;;;;;;25.20;17.35;;;;;;;-2.98;100.00;92855.84;2087749;28;20108;-81
2022/03/13 04:32:42;;;;;;;27.30;18.20;;;;;;;-3.08;100.00;92851.84;2092125;28;20466;-81
2022/03/13 04:33:44;;;;;;;25.45;17.60;;;;;;;-3.15;100.00;92857.66;2097519;28;20029;-81
2022/03/13 04:34:45;;;;;;;28.02;16.92;;;;;;;-3.16;100.00;92856.16;2098185;28;20119;-80
2022/03/13 04:35:46;;;;;;;24.38;17.67;;;;;;;-3.09;100.00;92855.56;2099867;28;20680;-80
2022/03/13 04:36:48;;;;;;;24.75;16.90;;;;;;;-3.07;100.00;92850.78;2094937;28;20025;-80
2022/03/13 04:37:50;;;;;;;23.85;17.13;;;;;;;-3.07;100.00;92856.75;2111797;27;20102;-81
2022/03/13 04:38:51;;;;;;;23.70;16.45;;;;;;;-3.07;100.00;92856.00;2111926;27;20019;-80
2022/03/13 04:39:52;;;;;;;24.13;17.02;;;;;;;-3.00;100.00;92850.16;2100888;28;20108;-79
2022/03/13 04:40:54;;;;;;;25.20;16.85;;;;;;;-3.11;100.00;92855.16;2094093;28;20016;-81
2022/03/13 04:41:55;;;;;;;24.33;17.25;;;;;;;-2.94;100.00;92854.81;2092118;28;20021;-81
2022/03/13 04:42:56;;;;;;;28.58;18.48;;;;;;;-2.97;100.00;92855.50;2088602;28;20021;-80
2022/03/13 04:43:57;;;;;;;25.13;17.52;;;;;;;-3.08;100.00;92854.47;2087730;28;20051;-81
2022/03/13 04:44:58;;;;;;;26.70;17.73;;;;;;;-3.19;100.00;92850.84;2094346;28;20020;-79
2022/03/13 04:45:59;;;;;;;24.80;17.33;;;;;;;-3.18;100.00;92855.72;2093789;28;20025;-81